Flight Track Log - Related Links

Times and Time Zones

All times are in EDT time to prevent confusion due to time zone crossing. See the RAX1073 flight status page for this flight to view local times or setup timezone preferences in your user account.

Time Position Orientation Groundspeed Altitude Reporting Facility
EDT Latitude Longitude Course Direction KTS MPH feet Rate Location/Type
Thu 10:20:49 PM 34.9839 -82.1475 North 268 308 6,400  Level Atlanta Center
Thu 10:21:49 PM 35.0500 -82.1081 26° Northeast 280 322 9,100 2,750 Climbing Atlanta Center
Thu 10:22:49 PM 35.1394 -82.0831 13° North 306 352 11,900 3,050 Climbing Atlanta Center
Thu 10:23:49 PM 35.2247 -82.0633 11° North 316 364 15,200 3,000 Climbing Atlanta Center
Thu 10:24:49 PM 35.3203 -82.0533 North 327 376 17,900 2,650 Climbing Atlanta Center
Thu 10:25:00 PM 35.3194 -81.9333 North  Level FlightAware Approximate
Thu 10:25:49 PM 35.4183 -82.0458 North 348 400 20,500  Level Atlanta Center
Thu 10:26:00 PM 35.4161 -81.9333 North  Level FlightAware Approximate
Thu 10:26:49 PM 35.5308 -82.0356 North 353 406 22,600  Level Atlanta Center
Thu 10:27:49 PM 35.6392 -82.0253 North 374 430 24,400 2,300 Climbing Atlanta Center
Thu 10:28:49 PM 35.7517 -82.0097 North 393 452 27,200 2,850 Climbing Atlanta Center
Thu 10:29:49 PM 35.8536 -81.9942 North 381 438 30,100 2,200 Climbing Atlanta Center
Thu 10:30:49 PM 35.9617 -81.9786 North 383 441 31,600 1,400 Climbing Atlanta Center
Thu 10:31:49 PM 36.0742 -81.9656 North 400 460 32,900 700 Climbing Atlanta Center
Thu 10:32:49 PM 36.1825 -81.9550 North 416 479 33,000 50 Climbing Atlanta Center
Thu 10:33:49 PM 36.3156 -81.9361 North 431 496 33,000  Level Atlanta Center
Thu 10:34:49 PM 36.4406 -81.9225 North 436 502 33,000  Level Atlanta Center
Thu 10:35:49 PM 36.5633 -81.9089 North 441 507 33,000 100 Level Atlanta Center
Thu 10:36:49 PM 36.6861 -81.8928 North 441 507 33,200 500 Climbing Atlanta Center
Thu 10:38:49 PM 36.9333 -81.8692 North 452 520 34,500 961 Climbing Indianapolis Center
Thu 10:39:50 PM 37.0564 -81.8597 North 445 512 36,100 1,220 Climbing Indianapolis Center
Thu 10:40:52 PM 37.1792 -81.8486 North 443 510 37,000 439 Climbing Indianapolis Center
Thu 10:41:53 PM 37.3053 -81.8342 North 456 525 37,000  Level Indianapolis Center
Thu 10:42:54 PM 37.4292 -81.8200 North 451 519 37,000  Level Indianapolis Center
Thu 10:43:56 PM 37.5797 -81.8058 North 461 531 37,000  Level Indianapolis Center
Thu 10:44:57 PM 37.7061 -81.7919 North 457 526 37,000  Level Indianapolis Center
Thu 10:45:59 PM 37.8317 -81.7761 North 453 521 37,000  Level Indianapolis Center
Thu 10:47:00 PM 37.9594 -81.7606 North 456 525 37,000  Level Indianapolis Center
Thu 10:48:01 PM 38.0861 -81.7592 360° North 462 532 37,000 -341 Level Indianapolis Center
Thu 10:49:03 PM 38.2125 -81.7697 356° North 455 524 36,300 -829 Descending Indianapolis Center
Thu 10:50:04 PM 38.3417 -81.7803 356° North 465 535 35,300 -927 Descending Indianapolis Center
Thu 10:51:06 PM 38.4683 -81.7647 North 455 524 34,400 -1,073 Descending Indianapolis Center
Thu 10:52:07 PM 38.5981 -81.7500 North 460 529 33,100 -1,220 Descending Indianapolis Center
Thu 10:53:09 PM 38.7289 -81.7378 North 457 526 31,900 -976 Descending Indianapolis Center
Thu 10:54:10 PM 38.8553 -81.7256 North 441 507 31,100 -780 Descending Indianapolis Center
Thu 10:55:12 PM 38.9797 -81.7144 North 442 509 30,300 -774 Descending Indianapolis Center
Thu 10:56:14 PM 39.1011 -81.6958 North 438 504 29,500 -885 Descending Indianapolis Center
Thu 10:57:14 PM 39.2258 -81.6758 North 448 516 28,500 -984 Descending Indianapolis Center
Thu 10:58:16 PM 39.3708 -81.6592 North 436 502 27,500 -829 Descending Indianapolis Center
Thu 10:59:17 PM 39.4897 -81.6436 North 429 494 26,800 -683 Descending Indianapolis Center
Thu 11:00:19 PM 39.6086 -81.6267 North 428 493 26,100 -769 Descending Indianapolis Center
Thu 11:00:35 PM 39.6372 -81.6208 North 431 496 25,800 -1,105 Descending Cleveland Center
Thu 11:01:35 PM 39.7667 -81.6039 North 431 496 24,700 -1,050 Descending Cleveland Center
Thu 11:02:35 PM 39.8853 -81.5975 North 421 484 23,700 -3,850 Descending Cleveland Center
Thu 11:03:35 PM 40.0022 -81.5831 North 421 484 17,000 -2,092 Descending Cleveland Center
Thu 11:04:24 PM 40.0853 -81.5711 North 397 457 19,900 -432 Climbing Indianapolis Center
Thu 11:05:26 PM 40.1950 -81.5517 North 394 453 16,200 -3,268 Descending Indianapolis Center
Thu 11:06:27 PM 40.2950 -81.5375 North 360 414 13,200 -2,803 Descending Indianapolis Center
Thu 11:07:28 PM 40.3822 -81.5217 North 317 365 10,500 -2,537 Descending Indianapolis Center
Thu 11:08:30 PM 40.4619 -81.5039 10° North 293 337 8,000 -2,341 Descending Indianapolis Center
Thu 11:09:31 PM 40.5425 -81.4914 North 289 333 5,700 -1,584 Descending Indianapolis Center
Thu 11:10:35 PM 40.6225 -81.4639 15° North 261 300 4,700 -823 Descending Cleveland Center
Thu 11:11:35 PM 40.6872 -81.4539 North 235 270 4,000 -500 Descending Cleveland Center
Thu 11:12:35 PM 40.7603 -81.4300 14° North 247 284 3,700 -500 Descending Cleveland Center
Thu 11:13:35 PM 40.8250 -81.4036 17° North 252 290 3,000 -500 Descending Cleveland Center
Thu 11:14:35 PM 40.8794 -81.3906 10° North 208 239 2,700 -300 Descending Cleveland Center
Thu 11:16:00 PM 40.9000 -81.4333 North  Level FlightAware Approximate
Thu 11:23:00 PM 40.9151 -81.4436 North  Level Estimated
Thu 11:24:00 PM 40.9151 -81.4436 North  Level Estimated
Thu 11:25:00 PM 40.9151 -81.4436 North  Level Estimated

Login

Don't have an account? Register now (free) for customized features, flight alerts, and more!